sensor_id;sensor_type;location;lat;lon;timestamp;pressure;altitude;pressure_sealevel;temperature;humidity
44457;BME280;30159;49.316;8.558;2024-03-23T00:55:04;99571.13;;;12.08;100.00
44457;BME280;30159;49.316;8.558;2024-03-23T00:57:30;99579.47;;;11.97;100.00
44457;BME280;30159;49.316;8.558;2024-03-23T00:59:56;99578.03;;;11.91;100.00
44457;BME280;30159;49.316;8.558;2024-03-23T01:02:22;99574.50;;;11.91;100.00
44457;BME280;30159;49.316;8.558;2024-03-23T01:04:49;99563.41;;;11.92;100.00
44457;BME280;30159;49.316;8.558;2024-03-23T01:07:14;99557.00;;;11.88;100.00
44457;BME280;30159;49.316;8.558;2024-03-23T01:09:42;99537.66;;;11.72;100.00
44457;BME280;30159;49.316;8.558;2024-03-23T01:12:08;99560.69;;;11.92;100.00
44457;BME280;30159;49.316;8.558;2024-03-23T01:14:35;99558.00;;;11.92;100.00
44457;BME280;30159;49.316;8.558;2024-03-23T01:17:01;99557.38;;;11.95;100.00
44457;BME280;30159;49.316;8.558;2024-03-23T01:19:27;99517.38;;;11.84;100.00
44457;BME280;30159;49.316;8.558;2024-03-23T01:21:53;99521.44;;;11.95;100.00
44457;BME280;30159;49.316;8.558;2024-03-23T01:24:20;99512.06;;;11.92;100.00
44457;BME280;30159;49.316;8.558;2024-03-23T01:26:47;99527.25;;;12.11;100.00
44457;BME280;30159;49.316;8.558;2024-03-23T01:29:14;99532.03;;;12.14;100.00
44457;BME280;30159;49.316;8.558;2024-03-23T01:31:39;99531.28;;;12.22;100.00
44457;BME280;30159;49.316;8.558;2024-03-23T01:34:06;99467.78;;;12.11;100.00
44457;BME280;30159;49.316;8.558;2024-03-23T01:36:31;99511.03;;;12.51;100.00
44457;BME280;30159;49.316;8.558;2024-03-23T01:38:59;99511.38;;;12.18;100.00
44457;BME280;30159;49.316;8.558;2024-03-23T01:41:24;99499.53;;;12.36;100.00
44457;BME280;30159;49.316;8.558;2024-03-23T01:43:53;99504.38;;;12.65;100.00
44457;BME280;30159;49.316;8.558;2024-03-23T01:46:20;99519.31;;;12.63;100.00
44457;BME280;30159;49.316;8.558;2024-03-23T01:48:47;99511.72;;;12.74;100.00
44457;BME280;30159;49.316;8.558;2024-03-23T01:51:13;99516.66;;;12.80;100.00
44457;BME280;30159;49.316;8.558;2024-03-23T01:53:39;99490.06;;;12.74;100.00
44457;BME280;30159;49.316;8.558;2024-03-23T01:56:05;99497.44;;;12.99;100.00
44457;BME280;30159;49.316;8.558;2024-03-23T01:58:32;99494.41;;;13.18;100.00
44457;BME280;30159;49.316;8.558;2024-03-23T02:00:59;99503.94;;;13.07;100.00
44457;BME280;30159;49.316;8.558;2024-03-23T02:03:27;99493.59;;;12.92;100.00
44457;BME280;30159;49.316;8.558;2024-03-23T02:05:53;99484.84;;;12.95;100.00
44457;BME280;30159;49.316;8.558;2024-03-23T02:08:21;99479.91;;;12.97;100.00
44457;BME280;30159;49.316;8.558;2024-03-23T02:10:47;99369.06;;;12.22;100.00
44457;BME280;30159;49.316;8.558;2024-03-23T02:13:14;99481.81;;;13.05;100.00
44457;BME280;30159;49.316;8.558;2024-03-23T02:15:40;99446.31;;;13.06;100.00
44457;BME280;30159;49.316;8.558;2024-03-23T02:18:08;99472.25;;;13.25;100.00
44457;BME280;30159;49.316;8.558;2024-03-23T02:20:34;99470.81;;;13.19;100.00
44457;BME280;30159;49.316;8.558;2024-03-23T02:23:02;99475.44;;;13.18;100.00
44457;BME280;30159;49.316;8.558;2024-03-23T02:25:28;99473.22;;;13.20;100.00
44457;BME280;30159;49.316;8.558;2024-03-23T02:27:54;99474.66;;;13.26;99.54
44457;BME280;30159;49.316;8.558;2024-03-23T02:30:20;99470.84;;;13.27;99.19
44457;BME280;30159;49.316;8.558;2024-03-23T02:32:47;99468.16;;;13.27;100.00
44457;BME280;30159;49.316;8.558;2024-03-23T02:35:13;99467.66;;;13.34;100.00
44457;BME280;30159;49.316;8.558;2024-03-23T02:37:39;99392.50;;;12.88;98.96
44457;BME280;30159;49.316;8.558;2024-03-23T02:40:07;99464.16;;;13.34;100.00
44457;BME280;30159;49.316;8.558;2024-03-23T02:42:34;99466.06;;;13.33;100.00
44457;BME280;30159;49.316;8.558;2024-03-23T02:45:00;99468.94;;;13.19;100.00
44457;BME280;30159;49.316;8.558;2024-03-23T02:47:26;99482.47;;;13.11;100.00
44457;BME280;30159;49.316;8.558;2024-03-23T02:49:52;99478.16;;;13.18;100.00
44457;BME280;30159;49.316;8.558;2024-03-23T02:52:19;99474.34;;;13.19;100.00
44457;BME280;30159;49.316;8.558;2024-03-23T02:54:45;99466.72;;;13.30;100.00
44457;BME280;30159;49.316;8.558;2024-03-23T02:57:13;99466.53;;;13.26;100.00
44457;BME280;30159;49.316;8.558;2024-03-23T02:59:38;99467.94;;;13.24;100.00
44457;BME280;30159;49.316;8.558;2024-03-23T03:02:05;99474.34;;;13.11;100.00
44457;BME280;30159;49.316;8.558;2024-03-23T03:04:31;99480.38;;;13.07;100.00
44457;BME280;30159;49.316;8.558;2024-03-23T03:06:57;99473.69;;;13.05;100.00
44457;BME280;30159;49.316;8.558;2024-03-23T03:09:23;99474.16;;;13.07;100.00
44457;BME280;30159;49.316;8.558;2024-03-23T03:11:50;99471.00;;;12.96;100.00
44457;BME280;30159;49.316;8.558;2024-03-23T03:14:17;99475.28;;;12.97;100.00
44457;BME280;30159;49.316;8.558;2024-03-23T03:16:44;99270.03;;;11.60;100.00
44457;BME280;30159;49.316;8.558;2024-03-23T03:19:11;99470.81;;;12.93;100.00
44457;BME280;30159;49.316;8.558;2024-03-23T03:21:38;99471.47;;;12.90;100.00
44457;BME280;30159;49.316;8.558;2024-03-23T03:24:06;99468.13;;;12.75;100.00
44457;BME280;30159;49.316;8.558;2024-03-23T03:26:33;99472.41;;;12.76;100.00
44457;BME280;30159;49.316;8.558;2024-03-23T03:28:58;99471.16;;;12.82;100.00
44457;BME280;30159;49.316;8.558;2024-03-23T03:31:26;99472.25;;;12.90;100.00
44457;BME280;30159;49.316;8.558;2024-03-23T03:33:52;99468.44;;;13.00;100.00
44457;BME280;30159;49.316;8.558;2024-03-23T03:36:18;99460.19;;;12.96;100.00
44457;BME280;30159;49.316;8.558;2024-03-23T03:38:44;99474.34;;;13.02;100.00
44457;BME280;30159;49.316;8.558;2024-03-23T03:41:11;99457.78;;;13.03;100.00
44457;BME280;30159;49.316;8.558;2024-03-23T03:43:36;99445.03;;;13.04;100.00
44457;BME280;30159;49.316;8.558;2024-03-23T03:46:03;99446.63;;;12.88;100.00
44457;BME280;30159;49.316;8.558;2024-03-23T03:48:30;99451.09;;;13.01;100.00
44457;BME280;30159;49.316;8.558;2024-03-23T03:50:57;99456.34;;;12.89;100.00
44457;BME280;30159;49.316;8.558;2024-03-23T03:53:22;99427.34;;;12.72;100.00
44457;BME280;30159;49.316;8.558;2024-03-23T03:55:49;99453.31;;;12.81;100.00
44457;BME280;30159;49.316;8.558;2024-03-23T03:58:15;99447.59;;;12.92;100.00
44457;BME280;30159;49.316;8.558;2024-03-23T04:00:41;99442.66;;;12.85;100.00
44457;BME280;30159;49.316;8.558;2024-03-23T04:03:07;99442.78;;;12.89;100.00
44457;BME280;30159;49.316;8.558;2024-03-23T04:05:35;99434.19;;;12.86;99.26
44457;BME280;30159;49.316;8.558;2024-03-23T04:08:01;99417.97;;;12.69;98.35
44457;BME280;30159;49.316;8.558;2024-03-23T04:10:27;99405.88;;;12.75;97.72
44457;BME280;30159;49.316;8.558;2024-03-23T04:12:53;99425.63;;;12.84;97.38
44457;BME280;30159;49.316;8.558;2024-03-23T04:15:20;99424.50;;;12.85;95.45
44457;BME280;30159;49.316;8.558;2024-03-23T04:17:46;99418.91;;;12.82;95.30
44457;BME280;30159;49.316;8.558;2024-03-23T04:20:13;99421.97;;;12.89;96.94
44457;BME280;30159;49.316;8.558;2024-03-23T04:22:43;99428.16;;;12.81;96.00
44457;BME280;30159;49.316;8.558;2024-03-23T04:25:10;99428.47;;;12.79;95.25
44457;BME280;30159;49.316;8.558;2024-03-23T04:27:36;99405.56;;;12.68;96.28
44457;BME280;30159;49.316;8.558;2024-03-23T04:30:03;99421.00;;;12.85;95.42
44457;BME280;30159;49.316;8.558;2024-03-23T04:32:31;99432.78;;;12.80;95.43
44457;BME280;30159;49.316;8.558;2024-03-23T04:34:57;99420.81;;;12.81;95.19
44457;BME280;30159;49.316;8.558;2024-03-23T04:37:23;99420.03;;;12.81;94.44
44457;BME280;30159;49.316;8.558;2024-03-23T04:39:51;99436.28;;;12.81;96.13
44457;BME280;30159;49.316;8.558;2024-03-23T04:42:18;99413.34;;;12.61;95.70
44457;BME280;30159;49.316;8.558;2024-03-23T04:44:44;99432.94;;;12.75;96.31
44457;BME280;30159;49.316;8.558;2024-03-23T04:47:11;99409.06;;;12.60;96.16
44457;BME280;30159;49.316;8.558;2024-03-23T04:49:37;99424.31;;;12.56;96.46
44457;BME280;30159;49.316;8.558;2024-03-23T04:52:04;99422.41;;;12.65;97.40
44457;BME280;30159;49.316;8.558;2024-03-23T04:54:31;99432.28;;;12.61;98.12
44457;BME280;30159;49.316;8.558;2024-03-23T04:57:00;99452.16;;;12.56;100.00
44457;BME280;30159;49.316;8.558;2024-03-23T04:59:25;99444.69;;;12.53;100.00
44457;BME280;30159;49.316;8.558;2024-03-23T05:01:52;99432.59;;;12.51;100.00
44457;BME280;30159;49.316;8.558;2024-03-23T05:04:18;99426.06;;;12.43;100.00
44457;BME280;30159;49.316;8.558;2024-03-23T05:06:44;99441.50;;;12.42;100.00
44457;BME280;30159;49.316;8.558;2024-03-23T05:09:10;99452.31;;;12.42;99.82
44457;BME280;30159;49.316;8.558;2024-03-23T05:11:37;99449.72;;;12.29;100.00
44457;BME280;30159;49.316;8.558;2024-03-23T05:14:04;99462.91;;;12.30;99.00
44457;BME280;30159;49.316;8.558;2024-03-23T05:16:30;99458.00;;;12.32;97.98
44457;BME280;30159;49.316;8.558;2024-03-23T05:18:56;99426.41;;;12.01;97.26
44457;BME280;30159;49.316;8.558;2024-03-23T05:21:23;99465.00;;;12.33;96.17
44457;BME280;30159;49.316;8.558;2024-03-23T05:23:48;99468.81;;;12.32;95.43
44457;BME280;30159;49.316;8.558;2024-03-23T05:26:15;99484.06;;;12.28;94.10
44457;BME280;30159;49.316;8.558;2024-03-23T05:28:40;99473.88;;;12.25;93.50
44457;BME280;30159;49.316;8.558;2024-03-23T05:31:08;99476.25;;;12.18;93.14
44457;BME280;30159;49.316;8.558;2024-03-23T05:33:34;99460.78;;;12.10;93.92
44457;BME280;30159;49.316;8.558;2024-03-23T05:36:04;99466.66;;;12.12;93.32
44457;BME280;30159;49.316;8.558;2024-03-23T05:38:30;99497.47;;;12.02;94.14
44457;BME280;30159;49.316;8.558;2024-03-23T05:40:57;99510.34;;;11.96;94.80
44457;BME280;30159;49.316;8.558;2024-03-23T05:43:23;99468.97;;;11.65;95.55
44457;BME280;30159;49.316;8.558;2024-03-23T05:45:53;99518.59;;;11.91;96.26
44457;BME280;30159;49.316;8.558;2024-03-23T05:48:26;99533.44;;;11.80;96.66
44457;BME280;30159;49.316;8.558;2024-03-23T05:50:56;99553.75;;;11.77;96.15
44457;BME280;30159;49.316;8.558;2024-03-23T05:53:24;99593.63;;;11.35;94.37
44457;BME280;30159;49.316;8.558;2024-03-23T05:55:51;99608.19;;;10.84;95.33
44457;BME280;30159;49.316;8.558;2024-03-23T05:58:19;99603.84;;;10.42;96.38
44457;BME280;30159;49.316;8.558;2024-03-23T06:00:46;99584.72;;;10.10;99.18
44457;BME280;30159;49.316;8.558;2024-03-23T06:03:12;99622.16;;;10.12;100.00
44457;BME280;30159;49.316;8.558;2024-03-23T06:05:40;99630.81;;;10.09;100.00
44457;BME280;30159;49.316;8.558;2024-03-23T06:08:08;99614.50;;;9.86;100.00
44457;BME280;30159;49.316;8.558;2024-03-23T06:10:35;99667.69;;;9.95;100.00
44457;BME280;30159;49.316;8.558;2024-03-23T06:13:01;99654.81;;;9.91;100.00
44457;BME280;30159;49.316;8.558;2024-03-23T06:15:28;99530.06;;;9.06;100.00
44457;BME280;30159;49.316;8.558;2024-03-23T06:17:54;99666.66;;;9.90;100.00
44457;BME280;30159;49.316;8.558;2024-03-23T06:20:20;99671.06;;;9.86;99.95
44457;BME280;30159;49.316;8.558;2024-03-23T06:22:48;99671.84;;;9.87;100.00
44457;BME280;30159;49.316;8.558;2024-03-23T06:25:14;99683.69;;;9.86;100.00
44457;BME280;30159;49.316;8.558;2024-03-23T06:27:41;99667.97;;;9.74;100.00
44457;BME280;30159;49.316;8.558;2024-03-23T06:30:07;99619.88;;;9.48;100.00
44457;BME280;30159;49.316;8.558;2024-03-23T06:32:34;99687.50;;;9.85;100.00
44457;BME280;30159;49.316;8.558;2024-03-23T06:35:00;99701.66;;;9.90;100.00
44457;BME280;30159;49.316;8.558;2024-03-23T06:37:34;99690.53;;;9.97;99.63
44457;BME280;30159;49.316;8.558;2024-03-23T06:40:01;99604.84;;;9.28;99.35
44457;BME280;30159;49.316;8.558;2024-03-23T06:42:30;99716.47;;;9.93;98.01
44457;BME280;30159;49.316;8.558;2024-03-23T06:44:55;99729.34;;;10.15;97.59
44457;BME280;30159;49.316;8.558;2024-03-23T06:47:22;99738.66;;;10.04;95.13
44457;BME280;30159;49.316;8.558;2024-03-23T06:49:47;99730.44;;;10.14;95.97
44457;BME280;30159;49.316;8.558;2024-03-23T06:52:14;99611.69;;;9.40;96.63
44457;BME280;30159;49.316;8.558;2024-03-23T06:54:40;99750.81;;;10.20;93.82
44457;BME280;30159;49.316;8.558;2024-03-23T06:57:08;99763.44;;;10.06;95.29
44457;BME280;30159;49.316;8.558;2024-03-23T06:59:33;99762.91;;;10.04;94.91
44457;BME280;30159;49.316;8.558;2024-03-23T07:02:00;99753.44;;;10.06;95.15
44457;BME280;30159;49.316;8.558;2024-03-23T07:04:25;99749.28;;;9.76;92.90
44457;BME280;30159;49.316;8.558;2024-03-23T07:06:52;99777.09;;;9.90;93.34
44457;BME280;30159;49.316;8.558;2024-03-23T07:09:18;99786.28;;;10.08;94.92
44457;BME280;30159;49.316;8.558;2024-03-23T07:11:45;99791.31;;;10.15;92.65
44457;BME280;30159;49.316;8.558;2024-03-23T07:14:12;99804.09;;;10.28;93.10
44457;BME280;30159;49.316;8.558;2024-03-23T07:16:39;99804.44;;;10.22;91.26
44457;BME280;30159;49.316;8.558;2024-03-23T07:19:04;99796.44;;;9.98;91.31
44457;BME280;30159;49.316;8.558;2024-03-23T07:21:31;99809.94;;;9.92;93.24
44457;BME280;30159;49.316;8.558;2024-03-23T07:23:57;99821.13;;;10.05;92.27
44457;BME280;30159;49.316;8.558;2024-03-23T07:26:23;99822.03;;;9.95;92.41
44457;BME280;30159;49.316;8.558;2024-03-23T07:28:49;99828.94;;;9.82;91.95
44457;BME280;30159;49.316;8.558;2024-03-23T07:31:17;99837.28;;;9.81;90.69
44457;BME280;30159;49.316;8.558;2024-03-23T07:33:45;99812.69;;;9.44;85.83
44457;BME280;30159;49.316;8.558;2024-03-23T07:36:12;99845.91;;;9.59;85.13
44457;BME280;30159;49.316;8.558;2024-03-23T07:38:40;99852.13;;;9.78;86.38
44457;BME280;30159;49.316;8.558;2024-03-23T07:41:08;99861.78;;;9.84;84.42
44457;BME280;30159;49.316;8.558;2024-03-23T07:43:34;99870.72;;;9.80;83.96
44457;BME280;30159;49.316;8.558;2024-03-23T07:46:01;99861.72;;;9.65;84.57
44457;BME280;30159;49.316;8.558;2024-03-23T07:48:30;99880.97;;;9.78;83.86
44457;BME280;30159;49.316;8.558;2024-03-23T07:51:01;99873.22;;;9.71;82.80
44457;BME280;30159;49.316;8.558;2024-03-23T07:53:27;99916.16;;;9.86;83.18
44457;BME280;30159;49.316;8.558;2024-03-23T07:55:55;99911.09;;;10.04;83.79
44457;BME280;30159;49.316;8.558;2024-03-23T07:58:20;99906.97;;;10.11;81.97
44457;BME280;30159;49.316;8.558;2024-03-23T08:00:47;99918.44;;;10.22;81.96
44457;BME280;30159;49.316;8.558;2024-03-23T08:03:14;99924.47;;;10.14;82.38
44457;BME280;30159;49.316;8.558;2024-03-23T08:05:41;99935.88;;;10.06;83.46
44457;BME280;30159;49.316;8.558;2024-03-23T08:08:07;99933.25;;;10.01;82.45
44457;BME280;30159;49.316;8.558;2024-03-23T08:10:33;99935.06;;;10.05;82.61
44457;BME280;30159;49.316;8.558;2024-03-23T08:13:00;99932.03;;;10.12;83.20
44457;BME280;30159;49.316;8.558;2024-03-23T08:15:25;99951.41;;;10.14;81.99
44457;BME280;30159;49.316;8.558;2024-03-23T08:17:52;99945.06;;;10.05;82.68
44457;BME280;30159;49.316;8.558;2024-03-23T08:20:18;99943.81;;;10.16;82.00
44457;BME280;30159;49.316;8.558;2024-03-23T08:22:46;99912.03;;;9.94;81.54
44457;BME280;30159;49.316;8.558;2024-03-23T08:25:12;99947.56;;;10.20;80.01
44457;BME280;30159;49.316;8.558;2024-03-23T08:27:38;99967.41;;;10.29;80.33
44457;BME280;30159;49.316;8.558;2024-03-23T08:30:05;99955.84;;;10.29;80.20
44457;BME280;30159;49.316;8.558;2024-03-23T08:32:32;99966.84;;;10.32;80.57
44457;BME280;30159;49.316;8.558;2024-03-23T08:34:58;99976.94;;;10.46;79.72
44457;BME280;30159;49.316;8.558;2024-03-23T08:37:24;99979.66;;;10.84;79.68
44457;BME280;30159;49.316;8.558;2024-03-23T08:39:52;99977.34;;;10.96;77.97
44457;BME280;30159;49.316;8.558;2024-03-23T08:42:19;99980.00;;;11.34;76.15
44457;BME280;30159;49.316;8.558;2024-03-23T08:44:46;99972.38;;;11.55;72.72
44457;BME280;30159;49.316;8.558;2024-03-23T08:47:14;99985.53;;;11.75;72.67
44457;BME280;30159;49.316;8.558;2024-03-23T08:49:40;99987.94;;;11.44;71.84
44457;BME280;30159;49.316;8.558;2024-03-23T08:52:07;100002.34;;;11.21;72.52
44457;BME280;30159;49.316;8.558;2024-03-23T08:54:32;99876.00;;;10.09;73.98
44457;BME280;30159;49.316;8.558;2024-03-23T08:57:00;100005.09;;;10.59;72.74
44457;BME280;30159;49.316;8.558;2024-03-23T08:59:26;99989.59;;;10.21;73.49
44457;BME280;30159;49.316;8.558;2024-03-23T09:01:53;100001.88;;;10.32;73.58
44457;BME280;30159;49.316;8.558;2024-03-23T09:04:19;100005.41;;;10.33;72.90
44457;BME280;30159;49.316;8.558;2024-03-23T09:06:47;99960.97;;;10.25;73.05
44457;BME280;30159;49.316;8.558;2024-03-23T09:09:12;100012.19;;;10.92;72.84
44457;BME280;30159;49.316;8.558;2024-03-23T09:11:39;100012.94;;;10.98;72.25
44457;BME280;30159;49.316;8.558;2024-03-23T09:14:06;100021.59;;;11.14;71.11
44457;BME280;30159;49.316;8.558;2024-03-23T09:16:33;100006.56;;;11.27;70.01
44457;BME280;30159;49.316;8.558;2024-03-23T09:18:58;100020.19;;;11.54;70.34
44457;BME280;30159;49.316;8.558;2024-03-23T09:21:25;100010.84;;;12.40;69.83
44457;BME280;30159;49.316;8.558;2024-03-23T09:23:50;100004.13;;;13.15;67.32
44457;BME280;30159;49.316;8.558;2024-03-23T09:26:17;99998.72;;;13.38;63.18
44457;BME280;30159;49.316;8.558;2024-03-23T09:28:43;100002.69;;;13.18;59.94
44457;BME280;30159;49.316;8.558;2024-03-23T09:31:11;99878.84;;;12.64;60.16
44457;BME280;30159;49.316;8.558;2024-03-23T09:33:39;100004.44;;;13.00;58.16
44457;BME280;30159;49.316;8.558;2024-03-23T09:36:07;100009.09;;;12.85;59.69
44457;BME280;30159;49.316;8.558;2024-03-23T09:38:32;99997.69;;;12.75;60.29
44457;BME280;30159;49.316;8.558;2024-03-23T09:40:59;100009.78;;;12.77;61.04
44457;BME280;30159;49.316;8.558;2024-03-23T09:43:25;100012.44;;;12.69;61.77
44457;BME280;30159;49.316;8.558;2024-03-23T09:45:52;99993.81;;;12.39;60.95
44457;BME280;30159;49.316;8.558;2024-03-23T09:48:20;99988.22;;;12.22;62.28
44457;BME280;30159;49.316;8.558;2024-03-23T09:50:46;100006.44;;;12.44;63.38
44457;BME280;30159;49.316;8.558;2024-03-23T09:53:14;99985.50;;;11.94;62.38
44457;BME280;30159;49.316;8.558;2024-03-23T09:55:42;100025.47;;;11.78;63.81
44457;BME280;30159;49.316;8.558;2024-03-23T09:58:08;100007.00;;;11.99;61.86
44457;BME280;30159;49.316;8.558;2024-03-23T10:00:38;100015.22;;;11.94;63.19
44457;BME280;30159;49.316;8.558;2024-03-23T10:03:04;100005.22;;;12.09;61.37
44457;BME280;30159;49.316;8.558;2024-03-23T10:05:33;99995.19;;;11.95;60.61
44457;BME280;30159;49.316;8.558;2024-03-23T10:08:00;99995.78;;;11.92;60.90
44457;BME280;30159;49.316;8.558;2024-03-23T10:10:27;100009.81;;;11.94;60.45
44457;BME280;30159;49.316;8.558;2024-03-23T10:12:52;100009.44;;;12.01;61.26
44457;BME280;30159;49.316;8.558;2024-03-23T10:15:20;100009.84;;;12.22;61.33
44457;BME280;30159;49.316;8.558;2024-03-23T10:17:46;100010.75;;;12.31;62.84
44457;BME280;30159;49.316;8.558;2024-03-23T10:20:13;100006.25;;;12.40;61.78
44457;BME280;30159;49.316;8.558;2024-03-23T10:22:45;100003.94;;;12.48;63.07
44457;BME280;30159;49.316;8.558;2024-03-23T10:25:12;100003.09;;;12.61;62.04
44457;BME280;30159;49.316;8.558;2024-03-23T10:27:41;99994.19;;;12.74;61.29
44457;BME280;30159;49.316;8.558;2024-03-23T10:30:10;100001.06;;;12.94;61.16
44457;BME280;30159;49.316;8.558;2024-03-23T10:32:37;100000.69;;;13.10;60.64
44457;BME280;30159;49.316;8.558;2024-03-23T10:35:16;99994.16;;;13.24;59.62
44457;BME280;30159;49.316;8.558;2024-03-23T10:37:45;100002.78;;;13.49;59.35
44457;BME280;30159;49.316;8.558;2024-03-23T10:40:12;99814.72;;;12.42;58.53
44457;BME280;30159;49.316;8.558;2024-03-23T10:42:38;100000.97;;;13.22;57.63
44457;BME280;30159;49.316;8.558;2024-03-23T10:45:07;99988.19;;;13.00;60.35
44457;BME280;30159;49.316;8.558;2024-03-23T10:47:34;99981.03;;;13.18;58.55
44457;BME280;30159;49.316;8.558;2024-03-23T10:50:02;99985.09;;;13.52;58.07
44457;BME280;30159;49.316;8.558;2024-03-23T10:52:29;99964.97;;;13.66;56.71
44457;BME280;30159;49.316;8.558;2024-03-23T10:54:57;99979.69;;;14.14;56.12
44457;BME280;30159;49.316;8.558;2024-03-23T10:57:27;99972.16;;;14.51;55.09
44457;BME280;30159;49.316;8.558;2024-03-23T10:59:56;99969.03;;;14.26;53.77
44457;BME280;30159;49.316;8.558;2024-03-23T11:02:22;99943.50;;;14.19;53.44
44457;BME280;30159;49.316;8.558;2024-03-23T11:04:52;99979.50;;;14.50;53.17
44457;BME280;30159;49.316;8.558;2024-03-23T11:07:28;99971.03;;;14.43;53.73
44457;BME280;30159;49.316;8.558;2024-03-23T11:09:57;99976.28;;;14.40;53.23
44457;BME280;30159;49.316;8.558;2024-03-23T11:12:28;99982.50;;;14.40;53.83
44457;BME280;30159;49.316;8.558;2024-03-23T11:14:58;99997.41;;;14.11;52.32
44457;BME280;30159;49.316;8.558;2024-03-23T11:17:26;99990.06;;;13.81;52.97
44457;BME280;30159;49.316;8.558;2024-03-23T11:19:56;99989.22;;;13.72;51.96
44457;BME280;30159;49.316;8.558;2024-03-23T11:22:38;99970.53;;;13.39;50.25
44457;BME280;30159;49.316;8.558;2024-03-23T11:25:14;99968.13;;;13.37;53.37
44457;BME280;30159;49.316;8.558;2024-03-23T11:27:39;99971.81;;;13.41;51.43
44457;BME280;30159;49.316;8.558;2024-03-23T11:30:14;99977.84;;;13.61;52.25
44457;BME280;30159;49.316;8.558;2024-03-23T11:32:42;99971.00;;;13.95;51.53
44457;BME280;30159;49.316;8.558;2024-03-23T11:35:09;99957.19;;;13.74;52.32
44457;BME280;30159;49.316;8.558;2024-03-23T11:37:36;99946.97;;;13.70;51.86
44457;BME280;30159;49.316;8.558;2024-03-23T11:40:22;99960.97;;;13.95;52.76
44457;BME280;30159;49.316;8.558;2024-03-23T11:42:55;99940.19;;;13.90;52.04
44457;BME280;30159;49.316;8.558;2024-03-23T11:45:22;99940.94;;;14.13;52.49
44457;BME280;30159;49.316;8.558;2024-03-23T11:47:47;99941.94;;;14.35;52.10
44457;BME280;30159;49.316;8.558;2024-03-23T11:50:19;99943.72;;;14.48;50.29
44457;BME280;30159;49.316;8.558;2024-03-23T11:52:45;99936.38;;;14.31;51.87
44457;BME280;30159;49.316;8.558;2024-03-23T11:55:12;99936.63;;;14.12;51.92
44457;BME280;30159;49.316;8.558;2024-03-23T11:57:39;99929.16;;;14.27;51.93
44457;BME280;30159;49.316;8.558;2024-03-23T12:00:20;99944.56;;;14.58;51.60
44457;BME280;30159;49.316;8.558;2024-03-23T12:02:47;99937.75;;;14.20;51.74
44457;BME280;30159;49.316;8.558;2024-03-23T12:05:16;99944.03;;;13.89;52.58
44457;BME280;30159;49.316;8.558;2024-03-23T12:07:43;99949.97;;;13.38;54.11
44457;BME280;30159;49.316;8.558;2024-03-23T12:10:08;99953.59;;;13.33;53.77
44457;BME280;30159;49.316;8.558;2024-03-23T12:12:35;99967.97;;;13.34;54.04
44457;BME280;30159;49.316;8.558;2024-03-23T12:15:03;99972.69;;;13.51;55.32
44457;BME280;30159;49.316;8.558;2024-03-23T12:17:31;99964.38;;;12.52;60.98
44457;BME280;30159;49.316;8.558;2024-03-23T12:19:57;99972.72;;;11.15;65.90
44457;BME280;30159;49.316;8.558;2024-03-23T12:22:24;99971.66;;;10.36;69.52
44457;BME280;30159;49.316;8.558;2024-03-23T12:24:50;99964.16;;;10.32;72.43
44457;BME280;30159;49.316;8.558;2024-03-23T12:27:17;99991.72;;;10.24;73.63
44457;BME280;30159;49.316;8.558;2024-03-23T12:29:42;100005.59;;;10.12;75.69
44457;BME280;30159;49.316;8.558;2024-03-23T12:32:13;99997.75;;;9.23;80.62
44457;BME280;30159;49.316;8.558;2024-03-23T12:34:39;99996.72;;;8.75;88.96
44457;BME280;30159;49.316;8.558;2024-03-23T12:37:07;99999.84;;;8.92;93.75
44457;BME280;30159;49.316;8.558;2024-03-23T12:39:33;99998.56;;;9.24;94.80
44457;BME280;30159;49.316;8.558;2024-03-23T12:42:01;99961.56;;;9.40;92.06
44457;BME280;30159;49.316;8.558;2024-03-23T12:44:28;99983.06;;;9.74;94.93
44457;BME280;30159;49.316;8.558;2024-03-23T12:46:54;99974.50;;;9.96;90.64
44457;BME280;30159;49.316;8.558;2024-03-23T12:49:21;99971.75;;;10.30;94.63
44457;BME280;30159;49.316;8.558;2024-03-23T12:51:53;99963.28;;;10.37;83.18
44457;BME280;30159;49.316;8.558;2024-03-23T12:54:19;99973.75;;;10.63;82.67
44457;BME280;30159;49.316;8.558;2024-03-23T12:56:46;99974.22;;;10.89;84.20
44457;BME280;30159;49.316;8.558;2024-03-23T12:59:12;99978.72;;;11.12;79.59
44457;BME280;30159;49.316;8.558;2024-03-23T13:01:39;99977.25;;;11.20;76.17
44457;BME280;30159;49.316;8.558;2024-03-23T13:04:04;99992.44;;;10.78;74.03
44457;BME280;30159;49.316;8.558;2024-03-23T13:06:34;100051.00;;;10.24;79.65
44457;BME280;30159;49.316;8.558;2024-03-23T13:09:00;100056.69;;;9.20;88.89
44457;BME280;30159;49.316;8.558;2024-03-23T13:11:26;100040.84;;;8.63;100.00
44457;BME280;30159;49.316;8.558;2024-03-23T13:13:52;100033.94;;;8.27;100.00
44457;BME280;30159;49.316;8.558;2024-03-23T13:16:19;100021.63;;;8.20;100.00
44457;BME280;30159;49.316;8.558;2024-03-23T13:18:45;100026.81;;;8.77;100.00
44457;BME280;30159;49.316;8.558;2024-03-23T13:21:12;100032.13;;;9.32;100.00
44457;BME280;30159;49.316;8.558;2024-03-23T13:23:39;100021.97;;;9.58;100.00
44457;BME280;30159;49.316;8.558;2024-03-23T13:26:07;100018.75;;;9.61;100.00
44457;BME280;30159;49.316;8.558;2024-03-23T13:28:33;100020.38;;;9.57;100.00
44457;BME280;30159;49.316;8.558;2024-03-23T13:31:00;100015.63;;;9.78;100.00
44457;BME280;30159;49.316;8.558;2024-03-23T13:33:29;100008.72;;;9.96;100.00
44457;BME280;30159;49.316;8.558;2024-03-23T13:35:57;100008.22;;;10.18;98.13
44457;BME280;30159;49.316;8.558;2024-03-23T13:38:23;100005.25;;;10.19;93.96
44457;BME280;30159;49.316;8.558;2024-03-23T13:40:55;100008.06;;;10.57;93.61
44457;BME280;30159;49.316;8.558;2024-03-23T13:43:22;99969.81;;;10.55;89.36
44457;BME280;30159;49.316;8.558;2024-03-23T13:45:55;99994.50;;;10.86;91.97
44457;BME280;30159;49.316;8.558;2024-03-23T13:48:22;100003.38;;;11.25;89.13
44457;BME280;30159;49.316;8.558;2024-03-23T13:50:56;99993.41;;;11.39;90.64